Time;durP1;ratioP1;P1;durP2;ratioP2;P2;SDS_P1;SDS_P2;PMS_P1;PMS_P2;Temp;Humidity;BMP_temperature;BMP_pressure;BME280_temperature;BME280_humidity;BME280_pressure;Samples;Min_cycle;Max_cycle;Signal;HPM_P1;HPM_P2
2023/04/24 00:01:00;;;;;;;14.63;11.40;;;;;;;8.65;100.00;99836.97;5042964;29;20030;-70
2023/04/24 00:03:32;;;;;;;13.93;11.65;;;;;;;8.68;100.00;99840.38;5043329;29;20470;-71
2023/04/24 00:06:06;;;;;;;15.87;11.47;;;;;;;8.68;100.00;99839.53;5043334;29;20042;-71
2023/04/24 00:08:38;;;;;;;15.25;12.73;;;;;;;8.69;100.00;99843.81;5026809;29;20286;-71
2023/04/24 00:11:09;;;;;;;16.30;12.17;;;;;;;8.63;100.00;99841.31;5043294;29;20037;-71
2023/04/24 00:13:40;;;;;;;14.37;12.77;;;;;;;8.60;100.00;99842.25;5043393;29;20082;-71
2023/04/24 00:16:12;;;;;;;14.53;13.03;;;;;;;8.56;100.00;99838.00;5042909;29;20045;-71
2023/04/24 00:18:44;;;;;;;15.00;13.13;;;;;;;8.52;100.00;99841.56;5027079;29;20486;-70
2023/04/24 00:21:17;;;;;;;21.15;14.85;;;;;;;8.37;100.00;99840.94;5042793;29;20042;-70
2023/04/24 00:23:48;;;;;;;;;;;;;;;8.44;100.00;99835.66;5043961;29;20042;-72
2023/04/24 00:26:20;;;;;;;21.70;16.02;;;;;;;8.30;100.00;99843.66;5027279;29;20281;-71
2023/04/24 00:28:51;;;;;;;23.73;17.07;;;;;;;8.22;100.00;99844.66;5027411;29;20071;-71
2023/04/24 00:31:22;;;;;;;19.57;17.17;;;;;;;8.20;100.00;99850.78;5046488;29;20490;-69
2023/04/24 00:33:54;;;;;;;24.53;17.57;;;;;;;8.13;100.00;99852.63;5047663;29;20082;-70
2023/04/24 00:36:26;;;;;;;21.63;17.37;;;;;;;8.10;100.00;99849.22;5032728;29;20038;-70
2023/04/24 00:38:58;;;;;;;;;;;;;;;8.08;100.00;99858.78;5050876;29;20034;-71
2023/04/24 00:41:29;;;;;;;22.20;18.33;;;;;;;8.07;100.00;99867.47;5052907;29;19919;-70
2023/04/24 00:44:01;;;;;;;22.40;18.37;;;;;;;8.12;100.00;99881.22;5037131;29;20514;-71
2023/04/24 00:46:32;;;;;;;23.03;18.93;;;;;;;8.09;100.00;99861.34;5052009;29;20038;-71
2023/04/24 00:49:05;;;;;;;20.93;16.63;;;;;;;8.10;100.00;99862.19;5052073;29;20046;-70
2023/04/24 00:51:37;;;;;;;25.63;19.20;;;;;;;8.11;100.00;99859.56;5053359;29;20474;-72
2023/04/24 00:54:08;;;;;;;21.63;18.73;;;;;;;8.10;100.00;99859.59;5038299;29;20038;-71
2023/04/24 00:56:41;;;;;;;25.20;19.60;;;;;;;8.10;100.00;99855.28;5057780;29;20045;-70
2023/04/24 00:59:12;;;;;;;24.98;18.63;;;;;;;8.13;100.00;99855.22;5055442;29;20102;-71
2023/04/24 01:01:45;;;;;;;22.87;18.80;;;;;;;8.15;100.00;99863.00;5057193;29;20046;-72
2023/04/24 01:04:17;;;;;;;27.65;19.17;;;;;;;8.18;100.00;99858.59;5054278;29;20097;-72
2023/04/24 01:06:49;;;;;;;23.60;18.73;;;;;;;8.18;100.00;99856.00;5044143;29;20030;-71
2023/04/24 01:09:23;;;;;;;25.08;20.08;;;;;;;8.14;100.00;99856.91;5043122;29;20034;-72
2023/04/24 01:11:54;;;;;;;31.95;19.52;;;;;;;8.08;100.00;99858.78;5043971;29;20061;-72
2023/04/24 01:14:26;;;;;;;26.90;18.77;;;;;;;8.01;100.00;99858.03;5026201;29;20042;-73
2023/04/24 01:16:57;;;;;;;24.23;21.73;;;;;;;7.94;100.00;99856.44;5042815;29;20394;-72
2023/04/24 01:19:29;;;;;;;29.23;22.43;;;;;;;7.91;100.00;99852.13;5042769;29;20471;-72
2023/04/24 01:22:02;;;;;;;29.50;21.60;;;;;;;7.85;100.00;99847.88;5042561;29;20479;-72
2023/04/24 01:24:34;;;;;;;28.38;22.10;;;;;;;7.80;100.00;99852.31;5042518;29;20151;-73
2023/04/24 01:27:07;;;;;;;26.60;23.27;;;;;;;7.76;100.00;99842.88;5042327;29;20478;-72
2023/04/24 01:29:38;;;;;;;;;;;;;;;7.76;100.00;99847.19;5042748;29;20118;-72
2023/04/24 01:32:10;;;;;;;33.75;24.05;;;;;;;7.73;100.00;99853.31;5044079;29;19961;-72
2023/04/24 01:34:43;;;;;;;30.77;27.23;;;;;;;7.70;100.00;99855.94;5046013;29;20502;-72
2023/04/24 01:37:15;;;;;;;39.80;29.50;;;;;;;7.66;100.00;99849.06;5046106;29;20766;-72
2023/04/24 01:39:46;;;;;;;36.03;29.77;;;;;;;7.70;100.00;99849.91;5045619;29;20054;-73
2023/04/24 01:42:18;;;;;;;44.23;30.43;;;;;;;7.64;100.00;99856.88;5045560;29;20046;-73
2023/04/24 01:44:51;;;;;;;47.47;32.47;;;;;;;7.63;100.00;99854.31;5045819;29;20034;-73
2023/04/24 01:47:23;;;;;;;41.80;31.67;;;;;;;7.61;100.00;99856.91;5045508;29;20041;-72
2023/04/24 01:49:54;;;;;;;39.90;31.85;;;;;;;7.66;100.00;99849.94;5045495;29;20030;-73
2023/04/24 01:52:26;;;;;;;46.37;32.87;;;;;;;7.62;100.00;99857.81;5028654;29;20040;-73
2023/04/24 01:54:59;;;;;;;42.25;31.73;;;;;;;7.58;100.00;99854.41;5046303;29;20038;-73
2023/04/24 01:57:31;;;;;;;40.00;32.75;;;;;;;7.52;100.00;99864.88;5045355;29;20034;-73
2023/04/24 02:00:06;;;;;;;40.73;32.97;;;;;;;7.58;100.00;99859.59;5044977;29;20038;-73
2023/04/24 02:02:40;;;;;;;37.90;32.20;;;;;;;7.58;100.00;99869.97;5045152;29;20038;-74
2023/04/24 02:05:12;;;;;;;39.63;32.65;;;;;;;7.57;100.00;99854.44;5045043;29;20049;-73
2023/04/24 02:07:43;;;;;;;37.90;32.80;;;;;;;7.61;100.00;99866.44;5045541;29;20038;-74
2023/04/24 02:10:15;;;;;;;39.57;32.83;;;;;;;7.52;100.00;99867.47;5045303;29;20490;-74
2023/04/24 02:12:46;;;;;;;44.60;32.70;;;;;;;7.55;100.00;99867.41;5045029;29;20398;-73
2023/04/24 02:15:17;;;;;;;40.60;31.83;;;;;;;7.48;100.00;99865.78;5053493;29;20038;-74
2023/04/24 02:17:49;;;;;;;34.67;30.97;;;;;;;7.46;100.00;99867.53;5064154;29;20074;-73
2023/04/24 02:20:20;;;;;;;37.50;30.17;;;;;;;7.45;100.00;99869.28;5064060;29;20033;-73
2023/04/24 02:22:52;;;;;;;43.90;32.57;;;;;;;7.45;100.00;99879.66;5064058;29;20112;-73
2023/04/24 02:25:23;;;;;;;37.10;30.93;;;;;;;7.45;100.00;99871.00;5063971;29;20497;-74
2023/04/24 02:27:54;;;;;;;43.50;31.17;;;;;;;7.42;100.00;99873.63;5063738;29;20037;-73
2023/04/24 02:30:26;;;;;;;41.37;33.50;;;;;;;7.40;100.00;99870.22;5063596;29;20034;-73
2023/04/24 02:32:57;;;;;;;42.87;34.07;;;;;;;7.38;100.00;99869.41;5063993;29;20053;-72
2023/04/24 02:35:29;;;;;;;40.40;33.73;;;;;;;7.35;100.00;99862.50;5063747;29;20030;-74
2023/04/24 02:38:00;;;;;;;43.88;34.15;;;;;;;7.36;100.00;99866.81;5063692;29;20044;-74
2023/04/24 02:40:32;;;;;;;41.23;33.43;;;;;;;7.35;100.00;99864.25;5063680;29;20430;-73
2023/04/24 02:43:03;;;;;;;45.57;36.50;;;;;;;7.32;100.00;99865.16;5062800;29;20076;-73
2023/04/24 02:45:35;;;;;;;41.70;32.63;;;;;;;7.30;100.00;99859.97;5063813;29;20076;-73
2023/04/24 02:48:06;;;;;;;44.10;34.03;;;;;;;7.30;100.00;99852.19;5063689;29;20090;-73
2023/04/24 02:50:37;;;;;;;42.03;32.73;;;;;;;7.29;100.00;99853.09;5047017;29;20042;-73
2023/04/24 02:53:09;;;;;;;45.60;31.17;;;;;;;7.29;100.00;99855.69;5063621;29;20029;-73
2023/04/24 02:55:40;;;;;;;38.70;32.33;;;;;;;7.29;100.00;99854.81;5063890;29;20034;-73
2023/04/24 02:58:12;;;;;;;44.17;32.60;;;;;;;7.24;100.00;99836.72;5063547;29;20030;-72
2023/04/24 03:00:44;;;;;;;48.45;34.90;;;;;;;7.29;100.00;99850.50;5063291;29;20033;-73
2023/04/24 03:03:15;;;;;;;44.47;33.50;;;;;;;7.27;100.00;99841.88;5063758;29;20595;-73
2023/04/24 03:05:47;;;;;;;42.87;33.97;;;;;;;7.26;100.00;99850.56;5063644;29;20188;-73
2023/04/24 03:08:18;;;;;;;42.90;34.37;;;;;;;7.30;100.00;99839.25;5063775;29;20393;-72
2023/04/24 03:10:49;;;;;;;43.87;35.47;;;;;;;7.25;100.00;99841.03;5063604;29;20094;-72
2023/04/24 03:13:21;;;;;;;42.13;34.67;;;;;;;7.25;100.00;99848.81;5063302;29;20073;-73
2023/04/24 03:15:53;;;;;;;38.23;31.27;;;;;;;7.24;100.00;99852.28;5063327;29;20393;-72
2023/04/24 03:18:25;;;;;;;43.53;33.75;;;;;;;7.25;100.00;99848.81;5063359;29;20033;-72
2023/04/24 03:20:56;;;;;;;41.13;32.60;;;;;;;7.25;100.00;99847.97;5063375;29;20056;-73
2023/04/24 03:23:28;;;;;;;43.87;30.77;;;;;;;7.27;100.00;99851.41;5046935;29;20065;-72
2023/04/24 03:25:59;;;;;;;35.03;30.77;;;;;;;7.23;100.00;99854.91;5063074;29;20036;-72
2023/04/24 03:28:31;;;;;;;40.00;29.73;;;;;;;7.22;100.00;99853.19;5046780;29;20541;-72
2023/04/24 03:31:03;;;;;;;32.90;29.43;;;;;;;7.14;100.00;99855.88;5062442;29;20042;-72
2023/04/24 03:33:35;;;;;;;35.58;28.45;;;;;;;7.16;100.00;99851.53;5062927;29;20482;-72
2023/04/24 03:36:07;;;;;;;35.67;26.70;;;;;;;7.19;100.00;99851.50;5062722;29;20498;-72
2023/04/24 03:38:38;;;;;;;30.37;26.20;;;;;;;7.16;100.00;99858.47;5063069;29;20033;-72
2023/04/24 03:41:09;;;;;;;38.73;28.37;;;;;;;7.17;100.00;99849.81;5062800;29;20060;-72
2023/04/24 03:43:41;;;;;;;34.17;27.03;;;;;;;7.16;100.00;99851.53;5062719;29;20048;-72
2023/04/24 03:46:13;;;;;;;34.53;26.40;;;;;;;7.16;100.00;99859.31;5046255;29;20508;-72
2023/04/24 03:48:44;;;;;;;33.63;25.70;;;;;;;7.18;100.00;99851.50;5062734;29;20549;-71
2023/04/24 03:51:15;;;;;;;36.50;25.53;;;;;;;7.21;100.00;99856.66;5062905;29;20040;-72
2023/04/24 03:53:47;;;;;;;33.97;26.37;;;;;;;7.15;100.00;99847.25;5062536;29;20033;-71
2023/04/24 03:56:18;;;;;;;31.33;24.60;;;;;;;7.16;100.00;99848.94;5061750;29;20038;-72
2023/04/24 03:58:49;;;;;;;30.10;23.20;;;;;;;7.21;100.00;99852.34;5062208;29;20473;-71
2023/04/24 04:01:21;;;;;;;31.23;23.07;;;;;;;7.15;100.00;99847.25;5062351;29;20040;-71
2023/04/24 04:03:52;;;;;;;31.23;24.77;;;;;;;7.17;100.00;99845.47;5062700;29;20048;-71
2023/04/24 04:06:24;;;;;;;27.43;24.60;;;;;;;7.16;100.00;99850.69;5062669;29;20156;-71
2023/04/24 04:08:55;;;;;;;29.97;25.63;;;;;;;7.18;100.00;99849.81;5062781;29;20037;-72
2023/04/24 04:11:26;;;;;;;28.00;24.17;;;;;;;7.12;100.00;99855.91;5062497;29;20070;-72
2023/04/24 04:13:58;;;;;;;31.47;25.70;;;;;;;7.19;100.00;99853.25;5062311;29;20069;-72
2023/04/24 04:16:29;;;;;;;26.90;24.10;;;;;;;7.12;100.00;99850.72;5062554;29;20071;-72
2023/04/24 04:19:02;;;;;;;27.10;23.77;;;;;;;7.16;100.00;99858.47;5062314;29;20041;-72
2023/04/24 04:21:34;;;;;;;28.05;24.13;;;;;;;7.18;100.00;99859.28;5062637;29;20117;-72
2023/04/24 04:24:07;;;;;;;27.77;24.63;;;;;;;7.11;100.00;99861.97;5062423;29;20169;-71
2023/04/24 04:26:38;;;;;;;27.10;24.20;;;;;;;7.12;100.00;99861.09;5062206;29;20529;-70
2023/04/24 04:29:10;;;;;;;25.80;23.10;;;;;;;7.07;100.00;99864.66;5061992;29;20033;-70
2023/04/24 04:31:42;;;;;;;27.73;24.83;;;;;;;7.07;100.00;99856.88;5062321;29;20058;-71
2023/04/24 04:34:13;;;;;;;27.37;24.47;;;;;;;7.06;100.00;99857.72;5062350;29;20120;-70
2023/04/24 04:36:46;;;;;;;29.23;24.92;;;;;;;7.03;100.00;99868.13;5062017;29;20037;-70
2023/04/24 04:39:18;;;;;;;29.23;25.77;;;;;;;7.05;100.00;99863.78;5062319;29;20041;-70
2023/04/24 04:41:50;;;;;;;28.95;25.55;;;;;;;7.03;100.00;99865.53;5062336;29;20393;-70
2023/04/24 04:44:21;;;;;;;29.03;25.77;;;;;;;7.04;100.00;99869.88;5062075;29;20041;-70
2023/04/24 04:46:56;;;;;;;32.27;25.00;;;;;;;7.02;100.00;99871.59;5022971;29;20114;-70
2023/04/24 04:49:28;;;;;;;31.35;24.63;;;;;;;7.02;100.00;99877.66;5042582;29;20130;-70
2023/04/24 04:51:59;;;;;;;27.65;24.75;;;;;;;7.02;100.00;99866.41;5042717;29;20490;-69
2023/04/24 04:54:31;;;;;;;28.23;25.10;;;;;;;7.07;100.00;99872.41;5042607;29;20042;-70
2023/04/24 04:57:03;;;;;;;31.40;24.93;;;;;;;7.00;100.00;99870.75;5042499;29;20034;-70
2023/04/24 04:59:35;;;;;;;31.27;25.58;;;;;;;7.08;100.00;99875.00;5041979;29;20038;-70
2023/04/24 05:02:06;;;;;;;25.10;22.43;;;;;;;7.05;100.00;99879.34;5026126;29;20045;-70
2023/04/24 05:04:37;;;;;;;27.60;24.47;;;;;;;7.06;100.00;99888.84;5026341;29;20056;-70
2023/04/24 05:07:09;;;;;;;25.20;22.40;;;;;;;7.05;100.00;99884.50;5028182;29;20033;-69
2023/04/24 05:09:40;;;;;;;25.03;22.33;;;;;;;7.06;100.00;99879.31;5046575;29;20105;-70
2023/04/24 05:12:11;;;;;;;23.83;20.37;;;;;;;7.06;100.00;99879.31;5046074;29;20033;-69
2023/04/24 05:14:43;;;;;;;25.43;20.13;;;;;;;7.07;100.00;99882.78;5045942;29;20038;-70
2023/04/24 05:17:14;;;;;;;26.83;20.20;;;;;;;7.05;100.00;99885.41;5045986;29;20034;-69
2023/04/24 05:19:46;;;;;;;21.23;18.17;;;;;;;7.04;100.00;99882.81;5045992;29;20552;-70
2023/04/24 05:22:20;;;;;;;20.73;16.90;;;;;;;7.06;100.00;99883.66;5045991;29;20034;-69
2023/04/24 05:24:52;;;;;;;21.23;16.95;;;;;;;7.07;100.00;99893.16;5045664;29;20038;-70
2023/04/24 05:27:24;;;;;;;21.83;16.60;;;;;;;7.05;100.00;99880.22;5046091;29;20041;-70
2023/04/24 05:29:55;;;;;;;19.85;15.18;;;;;;;7.05;100.00;99898.34;5045713;29;20037;-70
2023/04/24 05:32:27;;;;;;;15.27;11.43;;;;;;;7.04;100.00;99900.97;5045570;29;20054;-71
2023/04/24 05:34:58;;;;;;;13.67;10.20;;;;;;;7.00;100.00;99913.06;5046331;29;20034;-69
2023/04/24 05:37:29;;;;;;;11.70;10.10;;;;;;;7.03;100.00;99914.78;5045879;29;20075;-70
2023/04/24 05:40:01;;;;;;;11.93;8.10;;;;;;;7.01;100.00;99916.53;5045868;29;20026;-69
2023/04/24 05:42:32;;;;;;;9.20;6.43;;;;;;;6.99;100.00;99924.34;5045879;29;20045;-70
2023/04/24 05:45:04;;;;;;;9.50;6.13;;;;;;;6.95;100.00;99922.63;5045857;29;20034;-69
2023/04/24 05:47:36;;;;;;;7.85;5.28;;;;;;;6.90;100.00;99914.91;5028961;29;20402;-70
2023/04/24 05:50:08;;;;;;;7.63;4.93;;;;;;;6.91;100.00;99929.59;5045439;29;20034;-70
2023/04/24 05:52:39;;;;;;;6.03;3.73;;;;;;;6.90;100.00;99935.66;5029267;29;20106;-69
2023/04/24 05:55:11;;;;;;;10.57;5.03;;;;;;;6.88;100.00;99933.97;5045644;29;20402;-70
2023/04/24 05:57:42;;;;;;;7.03;4.33;;;;;;;6.90;100.00;99935.66;5045552;29;20101;-70
2023/04/24 06:00:13;;;;;;;5.97;4.23;;;;;;;6.88;100.00;99941.72;5045003;29;20490;-70
2023/04/24 06:02:45;;;;;;;12.00;4.70;;;;;;;6.88;100.00;99946.91;5045768;29;20045;-70
2023/04/24 06:05:17;;;;;;;7.55;4.82;;;;;;;6.89;100.00;99944.31;5045398;29;20182;-70
2023/04/24 06:07:48;;;;;;;8.10;5.47;;;;;;;6.89;100.00;99941.72;5045350;29;20121;-70
2023/04/24 06:10:20;;;;;;;11.20;5.80;;;;;;;6.90;100.00;99958.97;5045188;29;20034;-70
2023/04/24 06:12:51;;;;;;;8.30;6.40;;;;;;;6.89;100.00;99966.75;5013341;29;20034;-70
2023/04/24 06:15:23;;;;;;;9.47;7.57;;;;;;;6.90;100.00;99964.16;5045232;29;20394;-70
2023/04/24 06:17:54;;;;;;;13.83;10.47;;;;;;;6.88;100.00;99978.84;5044154;29;20030;-69
2023/04/24 06:20:26;;;;;;;14.07;11.33;;;;;;;6.88;100.00;99972.81;5045325;29;20521;-70
2023/04/24 06:22:57;;;;;;;15.43;11.57;;;;;;;6.89;100.00;99990.06;5045017;29;20105;-70
2023/04/24 06:25:28;;;;;;;16.93;11.80;;;;;;;6.89;100.00;99987.47;5044828;29;20120;-70
2023/04/24 06:28:00;;;;;;;16.17;13.47;;;;;;;6.89;100.00;99983.16;5044888;29;20109;-70
2023/04/24 06:30:31;;;;;;;16.33;13.90;;;;;;;6.89;100.00;100006.50;5044830;29;20090;-70
2023/04/24 06:33:03;;;;;;;18.60;14.50;;;;;;;6.90;100.00;100005.59;5028195;29;20137;-70
2023/04/24 06:35:36;;;;;;;18.00;16.00;;;;;;;6.89;100.00;100013.38;5044840;29;20489;-70
2023/04/24 06:38:07;;;;;;;;;;;;;;;6.89;100.00;100035.00;5028391;29;20073;-70
2023/04/24 06:40:38;;;;;;;21.75;16.95;;;;;;;6.88;100.00;100035.84;5044834;29;19958;-70
2023/04/24 06:43:10;;;;;;;21.90;17.63;;;;;;;6.83;100.00;100048.00;5045077;29;20502;-71
2023/04/24 06:45:43;;;;;;;22.13;17.83;;;;;;;6.86;100.00;100054.84;5044828;29;20085;-70
2023/04/24 06:48:15;;;;;;;24.40;18.83;;;;;;;6.84;100.00;100078.22;5044306;29;20402;-70
2023/04/24 06:50:46;;;;;;;23.97;19.77;;;;;;;6.83;100.00;100068.72;5044484;29;20045;-70
2023/04/24 06:53:18;;;;;;;28.47;21.53;;;;;;;6.81;100.00;100080.84;5044137;29;20099;-70
2023/04/24 06:55:49;;;;;;;28.23;21.63;;;;;;;6.83;100.00;100076.50;5044280;29;20394;-70
2023/04/24 06:58:21;;;;;;;30.43;21.90;;;;;;;6.79;100.00;100097.25;5044624;29;20053;-70
2023/04/24 07:00:52;;;;;;;31.37;22.30;;;;;;;6.80;100.00;100099.81;5043774;29;20486;-70
2023/04/24 07:03:23;;;;;;;35.40;22.33;;;;;;;6.78;100.00;100111.06;5044782;29;20093;-71
2023/04/24 07:05:55;;;;;;;30.73;23.73;;;;;;;6.75;100.00;100119.75;5043917;29;20074;-70
2023/04/24 07:08:26;;;;;;;35.87;24.33;;;;;;;6.72;100.00;100125.78;5043858;29;20038;-70
2023/04/24 07:10:57;;;;;;;29.53;23.17;;;;;;;6.70;100.00;100135.31;5012825;29;20071;-70
2023/04/24 07:13:29;;;;;;;35.30;24.40;;;;;;;6.71;100.00;100131.84;5027969;29;20475;-70
2023/04/24 07:16:00;;;;;;;31.17;23.13;;;;;;;6.72;100.00;100148.25;5027793;29;20474;-70
2023/04/24 07:18:32;;;;;;;28.83;20.07;;;;;;;6.70;100.00;100144.81;5043944;29;20113;-70
2023/04/24 07:21:03;;;;;;;30.80;20.63;;;;;;;6.75;100.00;100161.19;5043794;29;20068;-70
2023/04/24 07:23:34;;;;;;;33.57;24.23;;;;;;;6.79;100.00;100180.16;5043812;29;20045;-70
2023/04/24 07:26:06;;;;;;;37.03;26.07;;;;;;;6.76;100.00;100175.84;5043500;29;20065;-70
2023/04/24 07:28:37;;;;;;;31.97;23.63;;;;;;;6.81;100.00;100184.47;5044178;29;20029;-70
2023/04/24 07:31:11;;;;;;;33.63;25.23;;;;;;;6.83;100.00;100187.03;5043247;29;20100;-70
2023/04/24 07:33:42;;;;;;;32.67;22.90;;;;;;;6.86;100.00;100195.63;5043900;29;20434;-70
2023/04/24 07:36:18;;;;;;;34.87;21.90;;;;;;;6.89;100.00;100206.00;5027157;29;20072;-70
2023/04/24 07:38:50;;;;;;;28.92;18.60;;;;;;;6.84;100.00;100210.34;5043970;29;20048;-70
2023/04/24 07:41:21;;;;;;;29.30;18.53;;;;;;;6.82;100.00;100222.44;5027437;29;20041;-70
2023/04/24 07:43:53;;;;;;;28.33;15.73;;;;;;;6.79;100.00;100231.94;5043391;29;20042;-70
2023/04/24 07:46:25;;;;;;;25.45;15.02;;;;;;;6.78;100.00;100248.34;5043630;29;20034;-71
2023/04/24 07:48:56;;;;;;;24.47;12.57;;;;;;;6.74;100.00;100242.34;5043290;29;20038;-70
2023/04/24 07:51:28;;;;;;;27.03;12.87;;;;;;;6.78;100.00;100259.59;5043748;29;20030;-70
2023/04/24 07:53:59;;;;;;;23.90;12.30;;;;;;;6.75;100.00;100257.03;5026869;29;20034;-70
2023/04/24 07:56:31;;;;;;;25.07;11.40;;;;;;;6.71;100.00;100268.25;5043268;29;20050;-70
2023/04/24 07:59:02;;;;;;;25.27;11.83;;;;;;;6.72;100.00;100275.16;5042921;29;20118;-69
2023/04/24 08:01:33;;;;;;;24.47;10.83;;;;;;;6.71;100.00;100281.22;5043077;29;20087;-71
2023/04/24 08:04:05;;;;;;;27.17;13.33;;;;;;;6.72;100.00;100288.13;5043298;29;20037;-70
2023/04/24 08:06:36;;;;;;;24.40;11.30;;;;;;;6.73;100.00;100284.69;5043239;29;20125;-70
2023/04/24 08:09:08;;;;;;;30.50;13.33;;;;;;;6.78;100.00;100292.41;5043254;29;20038;-70
2023/04/24 08:11:39;;;;;;;28.73;12.17;;;;;;;6.80;100.00;100301.03;5043026;29;20495;-70
2023/04/24 08:14:12;;;;;;;32.27;14.33;;;;;;;6.76;100.00;100300.16;5026596;29;20030;-70
2023/04/24 08:16:44;;;;;;;32.58;14.85;;;;;;;6.80;100.00;100304.47;5027110;29;20483;-70
2023/04/24 08:19:15;;;;;;;28.60;15.37;;;;;;;6.85;100.00;100310.50;5042985;29;20094;-70
2023/04/24 08:21:47;;;;;;;36.07;15.20;;;;;;;6.93;100.00;100308.72;5026795;29;20118;-70
2023/04/24 08:24:18;;;;;;;38.70;15.57;;;;;;;7.03;100.00;100319.03;5042749;29;20138;-70
2023/04/24 08:26:51;;;;;;;30.50;15.37;;;;;;;7.00;100.00;100321.66;5042967;29;20037;-70
2023/04/24 08:29:22;;;;;;;27.85;13.45;;;;;;;7.00;100.00;100329.44;5042583;29;20030;-70
2023/04/24 08:31:54;;;;;;;29.47;13.73;;;;;;;6.99;100.00;100332.88;5042560;29;20102;-70
2023/04/24 08:34:25;;;;;;;30.53;13.50;;;;;;;7.02;100.00;100333.75;5026399;29;20038;-70
2023/04/24 08:36:57;;;;;;;26.57;12.77;;;;;;;7.05;100.00;100344.09;5043387;29;20383;-70
2023/04/24 08:39:28;;;;;;;23.67;10.60;;;;;;;7.04;100.00;100350.13;5042830;29;20034;-71
2023/04/24 08:42:05;;;;;;;29.07;10.77;;;;;;;7.05;100.00;100349.28;5030437;29;20075;-70
2023/04/24 08:44:37;;;;;;;28.33;12.88;;;;;;;7.16;100.00;100369.09;5049327;29;20030;-70
2023/04/24 08:47:08;;;;;;;30.83;10.70;;;;;;;7.23;100.00;100376.81;5032529;29;20041;-70
2023/04/24 08:49:39;;;;;;;23.33;9.53;;;;;;;7.24;100.00;100375.09;5048840;29;20073;-70
2023/04/24 08:52:12;;;;;;;28.67;11.27;;;;;;;7.27;100.00;100380.25;5049331;29;20034;-70
2023/04/24 08:54:46;;;;;;;21.92;8.68;;;;;;;7.35;100.00;100378.47;5048924;29;20042;-70
2023/04/24 08:57:18;;;;;;;23.83;9.15;;;;;;;7.50;100.00;100387.88;5048979;29;20033;-70
2023/04/24 08:59:50;;;;;;;30.45;8.95;;;;;;;7.47;100.00;100395.69;5048979;29;20117;-70
2023/04/24 09:02:23;;;;;;;16.52;7.60;;;;;;;7.37;100.00;100396.63;5032559;29;20049;-70
2023/04/24 09:04:55;;;;;;;20.98;7.68;;;;;;;7.32;100.00;100399.22;5048998;29;20097;-70
2023/04/24 09:07:30;;;;;;;23.92;8.13;;;;;;;7.23;100.00;100397.56;5048772;29;20038;-70
2023/04/24 09:10:02;;;;;;;17.30;6.15;;;;;;;7.14;100.00;100407.97;5048917;29;20044;-70
2023/04/24 09:12:34;;;;;;;23.98;7.35;;;;;;;7.16;100.00;100407.97;5032507;29;20120;-70
2023/04/24 09:15:07;;;;;;;20.15;7.10;;;;;;;7.15;100.00;100417.47;5048994;29;20029;-70
2023/04/24 09:17:39;;;;;;;17.38;6.43;;;;;;;7.22;100.00;100434.72;5032202;29;20065;-69
2023/04/24 09:20:10;;;;;;;20.07;6.33;;;;;;;7.37;100.00;100427.72;5048783;29;20450;-69
2023/04/24 09:22:43;;;;;;;20.00;6.10;;;;;;;7.51;100.00;100436.28;5048797;29;20037;-69
2023/04/24 09:25:14;;;;;;;;;;;;;;;7.65;100.00;100433.63;5032742;29;20034;-69
2023/04/24 09:27:46;;;;;;;18.67;7.53;;;;;;;7.74;100.00;100443.06;5049021;29;19991;-69
2023/04/24 09:30:22;;;;;;;15.10;6.30;;;;;;;7.59;100.00;100449.22;5048235;29;20044;-69
2023/04/24 09:33:13;;;;;;;13.23;7.07;;;;;;;7.51;100.00;100463.97;5032109;29;20467;-69
2023/04/24 09:35:51;;;;;;;16.85;5.43;;;;;;;7.37;100.00;100458.84;5048878;29;20056;-69
2023/04/24 09:38:36;;;;;;;19.65;5.45;;;;;;;7.15;100.00;100474.50;5048784;29;20467;-69
2023/04/24 09:41:13;;;;;;;14.98;6.35;;;;;;;6.96;100.00;100485.81;5048570;29;20493;-69
2023/04/24 09:43:45;;;;;;;15.98;5.40;;;;;;;6.82;100.00;100481.50;5048460;29;20058;-68
2023/04/24 09:46:18;;;;;;;13.10;4.80;;;;;;;6.93;100.00;100490.09;5048519;29;20099;-69
2023/04/24 09:48:49;;;;;;;15.38;4.88;;;;;;;7.14;100.00;100493.50;5048809;29;20045;-69
2023/04/24 09:51:36;;;;;;;15.30;4.50;;;;;;;7.26;100.00;100490.88;5048487;29;20038;-69
2023/04/24 09:54:20;;;;;;;11.75;4.25;;;;;;;7.42;100.00;100498.59;5045678;29;20030;-69
2023/04/24 09:56:51;;;;;;;13.68;3.95;;;;;;;7.57;100.00;100508.91;5045399;29;20026;-69
2023/04/24 09:59:23;;;;;;;12.37;4.53;;;;;;;7.82;100.00;100506.16;5045082;29;20417;-69
2023/04/24 10:01:55;;;;;;;12.90;3.57;;;;;;;8.07;100.00;100526.78;5045521;29;20037;-69
2023/04/24 10:04:28;;;;;;;12.83;4.17;;;;;;;8.38;100.00;100515.28;5045134;29;20098;-69
2023/04/24 10:07:06;;;;;;;12.63;3.78;;;;;;;8.87;100.00;100518.34;5028835;29;20069;-68
2023/04/24 10:09:37;;;;;;;13.18;3.90;;;;;;;8.73;98.56;100521.94;5045262;29;20037;-69
2023/04/24 10:12:09;;;;;;;14.40;4.67;;;;;;;8.72;100.00;100524.56;5044987;29;20474;-68
2023/04/24 10:14:41;;;;;;;10.43;3.30;;;;;;;8.57;98.29;100526.41;5045096;29;20037;-69
2023/04/24 10:17:13;;;;;;;15.30;4.07;;;;;;;8.41;98.27;100530.00;5028522;29;20101;-69
2023/04/24 10:19:46;;;;;;;15.00;4.90;;;;;;;8.10;98.13;100521.53;5045056;29;20037;-68
2023/04/24 10:22:17;;;;;;;10.63;4.13;;;;;;;7.94;100.00;100526.00;5044996;29;20057;-69
2023/04/24 10:24:50;;;;;;;9.93;3.03;;;;;;;7.79;100.00;100527.81;5013308;29;20394;-69
2023/04/24 10:27:21;;;;;;;7.82;2.85;;;;;;;7.73;100.00;100550.31;5044922;29;20066;-68
2023/04/24 10:29:53;;;;;;;7.97;2.80;;;;;;;7.57;98.22;100554.72;5013063;29;20073;-68
2023/04/24 10:32:26;;;;;;;6.47;2.27;;;;;;;7.45;98.04;100556.50;5044877;29;20614;-69
2023/04/24 10:34:57;;;;;;;7.80;2.83;;;;;;;7.35;97.23;100554.78;5044974;29;20048;-68
2023/04/24 10:37:36;;;;;;;8.73;2.17;;;;;;;7.42;100.00;100560.81;5045272;29;20030;-68
2023/04/24 10:40:09;;;;;;;6.97;2.03;;;;;;;7.66;98.24;100559.88;5028605;29;20030;-68
2023/04/24 10:42:43;;;;;;;;;;;;;;;7.76;96.43;100568.47;5028950;29;20398;-68
2023/04/24 10:45:21;;;;;;;6.18;2.20;;;;;;;7.99;95.55;100570.97;5044983;29;19916;-68
2023/04/24 10:48:03;;;;;;;6.18;1.77;;;;;;;8.35;98.63;100572.44;5044799;29;20477;-69
2023/04/24 10:50:52;;;;;;;6.05;1.77;;;;;;;8.33;91.91;100578.53;5044861;29;20112;-69
2023/04/24 10:53:27;;;;;;;5.50;1.92;;;;;;;8.29;94.11;100571.63;5029319;29;20026;-68
2023/04/24 10:56:03;;;;;;;6.47;2.72;;;;;;;8.38;93.82;100577.63;5045624;29;20083;-68
2023/04/24 10:58:45;;;;;;;10.05;2.55;;;;;;;8.60;92.83;100589.63;5045398;29;20427;-68
2023/04/24 11:01:29;;;;;;;9.55;3.35;;;;;;;8.49;88.91;100585.38;5046872;29;20033;-69
2023/04/24 11:04:03;;;;;;;8.68;2.60;;;;;;;8.43;91.06;100580.22;5047495;29;20042;-68
2023/04/24 11:06:36;;;;;;;11.60;3.13;;;;;;;8.56;91.64;100586.19;5052348;29;20097;-67
2023/04/24 11:09:12;;;;;;;10.75;2.80;;;;;;;8.57;90.75;100585.31;5058912;29;20376;-67
2023/04/24 11:11:47;;;;;;;7.05;2.00;;;;;;;8.48;93.37;100588.84;5058827;29;20040;-68
2023/04/24 11:14:18;;;;;;;8.63;2.30;;;;;;;8.39;94.65;100583.69;5061826;29;20034;-67
2023/04/24 11:16:54;;;;;;;5.93;1.80;;;;;;;8.28;94.70;100601.09;5061915;29;20042;-67
2023/04/24 11:19:28;;;;;;;5.50;1.73;;;;;;;8.13;93.91;100599.41;5063861;29;20034;-69
2023/04/24 11:22:01;;;;;;;6.57;2.08;;;;;;;8.13;97.16;100605.50;5060840;29;20042;-68
2023/04/24 11:24:32;;;;;;;;;;;;;;;8.01;93.79;100621.13;5043828;29;20034;-69
2023/04/24 11:27:06;;;;;;;9.02;1.92;;;;;;;8.02;99.33;100610.75;5060994;29;20019;-67
2023/04/24 11:29:46;;;;;;;8.05;2.63;;;;;;;7.82;99.20;100622.94;5062288;29;20049;-69
2023/04/24 11:32:19;;;;;;;7.57;2.22;;;;;;;7.81;99.47;100619.50;5062601;29;20046;-67
2023/04/24 11:35:04;;;;;;;7.30;2.08;;;;;;;7.85;95.75;100615.13;5063010;29;20030;-67
2023/04/24 11:37:38;;;;;;;4.28;2.03;;;;;;;8.01;96.09;100619.38;5062649;29;20062;-67
2023/04/24 11:40:12;;;;;;;3.60;1.70;;;;;;;8.29;96.99;100629.66;5032883;29;20486;-67
2023/04/24 11:42:44;;;;;;;7.50;2.20;;;;;;;8.35;95.08;100626.97;5027612;29;20558;-68